Time;durP1;ratioP1;P1;durP2;ratioP2;P2;SDS_P1;SDS_P2;PMS_P1;PMS_P2;Temp;Humidity;BMP_temperature;BMP_pressure;BME280_temperature;BME280_humidity;BME280_pressure;Samples;Min_cycle;Max_cycle;Signal;HPM_P1;HPM_P2
2023/06/09 00:02:19;;;;;;;;;;;19.90;77.50;;;20.12;53.35;98333.34;5026669;27;114144;-86
2023/06/09 00:04:45;;;;;;;;;;;19.90;77.60;;;20.12;53.36;98329.75;5011740;28;113344;-87
2023/06/09 00:07:15;;;;;;;;;;;19.90;77.70;;;20.11;53.62;98331.75;5026207;27;123279;-86
2023/06/09 00:09:46;;;;;;;;;;;19.90;77.90;;;20.08;53.52;98338.16;5026441;27;124054;-86
2023/06/09 00:12:13;;;;;;;;;;;19.90;78.10;;;20.07;53.49;98342.16;5026374;27;114075;-85
2023/06/09 00:14:40;;;;;;;;;;;19.80;78.10;;;20.04;53.48;98324.09;5025735;27;113613;-86
2023/06/09 00:17:09;;;;;;;;;;;19.80;78.40;;;20.03;53.70;98330.09;5024757;27;124585;-86
2023/06/09 00:19:36;;;;;;;;;;;19.80;78.50;;;20.01;53.95;98340.88;5025831;28;123894;-86
2023/06/09 00:22:03;;;;;;;;;;;19.80;78.70;;;19.98;53.55;98338.84;5034966;27;113518;-86
2023/06/09 00:24:29;;;;;;;;;;;19.70;78.70;;;19.94;53.96;98333.22;5024146;28;113574;-86
2023/06/09 00:26:55;;;;;;;;;;;19.80;79.00;;;19.92;53.70;98332.00;5026489;28;124223;-87
2023/06/09 00:29:22;;;;;;;;;;;18.10;77.30;;;19.90;53.69;98334.38;5025215;28;124243;-87
2023/06/09 00:31:48;;;;;;;;;;;19.70;78.90;;;19.89;53.57;98341.97;5027738;27;113726;-86
2023/06/09 00:34:17;;;;;;;;;;;19.70;79.00;;;19.86;53.80;98332.34;5026861;27;113660;-87
2023/06/09 00:36:45;;;;;;;;;;;19.60;78.90;;;19.85;53.94;98344.75;5002883;28;123504;-86
2023/06/09 00:39:12;;;;;;;;;;;19.60;79.20;;;19.83;53.84;98341.53;5025162;27;124017;-85
2023/06/09 00:41:39;;;;;;;;;;;19.60;79.30;;;19.82;53.97;98341.91;5025611;27;115510;-85
2023/06/09 00:44:05;;;;;;;;;;;19.60;79.40;;;19.80;53.99;98335.88;5027864;28;114948;-85
2023/06/09 00:46:34;;;;;;;;;;;19.60;79.60;;;19.77;53.74;98331.88;5023292;27;123594;-86
2023/06/09 00:49:01;;;;;;;;;;;19.60;79.60;;;19.76;54.19;98329.44;5010310;28;124065;-87
2023/06/09 00:51:28;;;;;;;;;;;19.60;79.70;;;19.73;54.20;98331.00;5003052;27;113835;-87
2023/06/09 00:53:54;;;;;;;;;;;19.50;79.70;;;19.72;54.29;98329.41;5041287;27;113977;-87
2023/06/09 00:56:23;;;;;;;;;;;19.50;79.80;;;19.71;54.28;98326.97;5025252;27;124346;-87
2023/06/09 00:58:50;;;;;;;;;;;19.50;80.00;;;19.69;54.32;98323.75;5025396;27;124103;-87
2023/06/09 01:01:16;;;;;;;;;;;19.50;80.20;;;19.65;54.42;98329.28;5026470;27;114570;-87
2023/06/09 01:03:42;;;;;;;;;;;19.50;80.30;;;19.62;54.45;98327.25;5024333;27;113417;-87
2023/06/09 01:06:26;;;;;;;;;;;19.40;80.40;;;19.61;54.67;98331.25;5025513;28;123911;-87
2023/06/09 01:09:00;;;;;;;;;;;19.40;80.50;;;19.59;54.58;98331.66;5039683;27;123770;-87
2023/06/09 01:11:32;;;;;;;;;;;19.40;80.70;;;19.58;54.67;98334.81;5010064;28;113243;-86
2023/06/09 01:14:10;;;;;;;;;;;19.30;80.80;;;19.56;54.52;98331.63;5024495;28;113719;-87
2023/06/09 01:17:07;;;;;;;;;;;19.30;81.00;;;19.50;54.36;98321.91;5026343;27;124132;-87
2023/06/09 01:19:43;;;;;;;;;;;19.30;81.00;;;19.48;54.50;98327.09;5042775;27;123578;-87
2023/06/09 01:22:37;;;;;;;;;;;19.20;81.00;;;19.46;54.57;98335.91;5023937;27;114223;-87
2023/06/09 01:25:20;;;;;;;;;;;19.20;81.10;;;19.45;54.75;98339.06;5024806;28;113643;-87
2023/06/09 01:27:48;;;;;;;;;;;19.20;81.30;;;19.42;54.75;98332.22;5026052;27;124054;-88
2023/06/09 01:30:15;;;;;;;;;;;19.20;81.50;;;19.41;55.01;98342.66;5017516;27;123650;-87
2023/06/09 01:32:45;;;;;;;;;;;19.20;81.60;;;19.39;54.95;98331.00;5009878;28;114283;-88
2023/06/09 01:35:11;;;;;;;;;;;19.20;81.80;;;19.39;54.88;98328.19;5028072;27;114845;-88
2023/06/09 01:37:38;;;;;;;;;;;19.20;81.90;;;19.39;55.18;98330.22;5024800;28;125183;-87
2023/06/09 01:40:08;;;;;;;;;;;19.10;82.10;;;19.37;55.30;98333.41;5027292;27;123897;-88
2023/06/09 01:42:35;;;;;;;;;;;19.10;82.10;;;19.35;55.19;98334.97;5027615;27;114255;-87
2023/06/09 01:45:01;;;;;;;;;;;19.10;82.30;;;19.33;55.15;98328.94;5029321;27;113859;-85
2023/06/09 01:47:27;;;;;;;;;;;19.10;82.30;;;19.33;55.08;98329.75;5027410;27;124106;-88
2023/06/09 01:50:07;;;;;;;;;;;19.10;82.50;;;19.31;55.21;98323.72;5027264;27;124565;-87
2023/06/09 01:52:40;;;;;;;;;;;19.10;82.60;;;19.27;55.22;98320.06;5006874;28;115228;-87
2023/06/09 01:55:14;;;;;;;;;;;19.10;82.60;;;19.25;55.14;98321.66;5030497;27;113642;-88
2023/06/09 01:57:53;;;;;;;;;;;19.00;83.20;;;19.20;55.02;98320.78;5025956;27;124124;-87
2023/06/09 02:00:22;;;;;;;;;;;19.00;82.50;;;19.16;55.05;98316.34;5013293;27;123626;-87
2023/06/09 02:02:56;;;;;;;;;;;18.90;82.50;;;19.11;55.23;98319.47;5043562;27;114245;-88
2023/06/09 02:05:26;;;;;;;;;;;18.90;82.60;;;19.07;55.28;98315.81;5025865;27;114159;-87
2023/06/09 02:07:53;;;;;;;;;;;18.90;82.80;;;19.04;55.33;98317.38;5026846;28;124214;-87
2023/06/09 02:10:21;;;;;;;;;;;18.80;82.90;;;19.02;55.56;98321.75;5028244;28;123963;-88
2023/06/09 02:12:47;;;;;;;;;;;18.80;83.00;;;19.02;55.42;98328.19;5028395;28;115288;-87
2023/06/09 02:15:13;;;;;;;;;;;18.80;83.20;;;19.02;55.34;98327.34;5006927;28;112829;-87
2023/06/09 02:17:40;;;;;;;;;;;18.80;83.30;;;19.01;55.56;98317.34;5003969;28;123097;-88
2023/06/09 02:20:08;;;;;;;;;;;18.80;83.50;;;19.01;55.64;98325.75;5027181;27;124005;-87
2023/06/09 02:22:35;;;;;;;;;;;18.70;83.60;;;18.97;55.54;98312.50;5003078;27;115014;-88
2023/06/09 02:25:08;;;;;;;;;;;18.70;83.70;;;18.96;55.66;98319.28;5030512;28;114236;-87
2023/06/09 02:27:35;;;;;;;;;;;18.70;83.90;;;18.94;56.05;98323.66;5013296;28;123225;-88
2023/06/09 02:30:01;;;;;;;;;;;18.70;84.00;;;18.92;55.65;98320.44;5029917;27;123105;-87
2023/06/09 02:32:29;;;;;;;;;;;18.70;84.10;;;18.90;55.82;98314.41;5027609;28;114528;-87
2023/06/09 02:34:56;;;;;;;;;;;18.70;84.20;;;18.88;55.87;98319.56;5027243;27;113688;-88
2023/06/09 02:37:22;;;;;;;;;;;18.70;84.40;;;18.86;56.03;98316.34;5026162;27;124145;-87
2023/06/09 02:39:48;;;;;;;;;;;18.60;84.40;;;18.85;56.08;98323.94;5029526;27;124073;-87
2023/06/09 02:42:15;;;;;;;;;;;18.60;84.60;;;18.83;55.98;98320.72;5027236;27;114451;-87
2023/06/09 02:44:41;;;;;;;;;;;18.60;84.80;;;18.82;56.18;98321.91;5044617;27;112827;-87
2023/06/09 02:47:07;;;;;;;;;;;18.60;84.90;;;18.81;56.09;98328.69;5025562;27;124790;-88
2023/06/09 02:49:33;;;;;;;;;;;18.60;85.00;;;18.81;56.01;98319.50;5028143;27;123779;-87
2023/06/09 02:52:00;;;;;;;;;;;18.60;85.10;;;18.79;56.04;98333.88;5031232;27;114485;-87
2023/06/09 02:54:26;;;;;;;;;;;18.60;85.20;;;18.76;56.16;98315.84;5026517;27;113627;-87
2023/06/09 02:56:52;;;;;;;;;;;18.50;85.10;;;18.77;56.21;98333.44;5029545;27;123342;-87
2023/06/09 02:59:19;;;;;;;;;;;18.50;85.20;;;18.76;56.03;98324.22;5027118;27;123674;-88
2023/06/09 03:01:45;;;;;;;;;;;18.50;85.30;;;18.75;55.96;98327.41;5026494;27;114086;-88
2023/06/09 03:04:11;;;;;;;;;;;18.50;85.30;;;18.73;56.07;98335.34;5027685;27;113558;-87
2023/06/09 03:06:39;;;;;;;;;;;18.50;85.40;;;18.70;56.08;98333.31;5026021;27;124594;-88
2023/06/09 03:09:06;;;;;;;;;;;18.50;85.50;;;18.68;56.15;98335.69;5026236;27;124302;-87
2023/06/09 03:11:32;;;;;;;;;;;18.50;85.70;;;18.67;56.30;98325.66;5025391;28;115456;-87
2023/06/09 03:13:58;;;;;;;;;;;18.40;85.80;;;18.63;56.24;98331.22;5026778;27;114786;-88
2023/06/09 03:16:25;;;;;;;;;;;18.40;85.90;;;18.62;56.33;98337.16;5026892;28;124647;-87
2023/06/09 03:18:53;;;;;;;;;;;18.40;86.00;;;18.59;56.52;98329.53;5025651;27;124039;-88
2023/06/09 03:21:23;;;;;;;;;;;18.40;86.20;;;18.59;56.60;98332.34;5030262;27;114087;-88
2023/06/09 03:23:49;;;;;;;;;;;18.30;86.40;;;18.56;56.65;98333.91;5025482;27;113888;-88
2023/06/09 03:26:20;;;;;;;;;;;18.30;86.50;;;18.56;56.55;98336.69;5026769;27;124607;-87
2023/06/09 03:28:46;;;;;;;;;;;18.30;86.70;;;18.54;56.78;98336.28;5026481;28;125648;-87
2023/06/09 03:31:17;;;;;;;;;;;18.30;86.80;;;18.53;56.55;98341.03;5027334;28;114388;-88
2023/06/09 03:33:43;;;;;;;;;;;18.30;87.00;;;18.53;56.91;98343.03;5027097;27;114924;-87
2023/06/09 03:36:09;;;;;;;;;;;18.30;87.20;;;18.52;57.00;98336.66;5004185;27;123789;-88
2023/06/09 03:38:36;;;;;;;;;;;18.30;87.40;;;18.51;57.04;98329.44;5026047;27;124127;-87
2023/06/09 03:41:05;;;;;;;;;;;18.30;87.60;;;18.51;57.29;98329.44;5027755;27;114090;-87
2023/06/09 03:43:31;;;;;;;;;;;18.30;87.80;;;18.51;57.29;98332.25;5027610;28;113836;-88
2023/06/09 03:45:59;;;;;;;;;;;18.30;88.10;;;18.52;57.43;98339.44;4994741;28;117653;-87
2023/06/09 03:48:25;;;;;;;;;;;18.20;88.20;;;18.52;57.50;98342.25;5040712;27;123603;-88
2023/06/09 03:50:52;;;;;;;;;;;18.20;88.40;;;18.54;57.39;98348.28;5025414;28;114239;-87
2023/06/09 03:53:20;;;;;;;;;;;18.30;88.70;;;18.56;57.40;98342.28;5026389;27;113996;-87
2023/06/09 03:55:47;;;;;;;;;;;18.20;88.80;;;18.57;57.58;98349.50;5026821;28;124910;-88
2023/06/09 03:58:13;;;;;;;;;;;18.30;89.00;;;18.57;57.50;98337.53;5025012;27;124673;-87
2023/06/09 04:00:40;;;;;;;;;;;18.20;89.10;;;18.59;57.52;98347.16;5027418;27;115195;-87
2023/06/09 04:03:07;;;;;;;;;;;18.30;89.40;;;18.70;57.19;98345.31;5041712;27;114663;-87
2023/06/09 04:05:33;;;;;;;;;;;18.30;89.50;;;18.83;57.04;98340.31;5024919;28;124563;-88
2023/06/09 04:08:00;;;;;;;;;;;18.30;89.60;;;18.93;56.52;98339.66;5025336;28;123047;-88
2023/06/09 04:10:26;;;;;;;;;;;18.40;89.60;;;18.94;56.25;98338.47;5010571;27;113979;-87
2023/06/09 04:12:54;;;;;;;;;;;18.40;89.40;;;18.92;56.69;98337.25;5025091;27;113759;-87
2023/06/09 04:15:21;;;;;;;;;;;18.40;89.20;;;18.87;56.48;98340.38;5012347;28;123513;-87
2023/06/09 04:17:47;;;;;;;;;;;18.40;89.00;;;18.83;56.23;98343.09;5025477;27;125876;-87
2023/06/09 04:20:13;;;;;;;;;;;18.40;88.90;;;18.79;56.41;98342.25;5025084;27;114295;-87
2023/06/09 04:22:47;;;;;;;;;;;18.40;88.70;;;18.77;56.11;98344.63;5027677;27;113632;-87
2023/06/09 04:25:14;;;;;;;;;;;18.40;88.60;;;18.74;56.25;98337.78;5025072;27;123905;-87
2023/06/09 04:27:42;;;;;;;;;;;18.40;88.50;;;18.72;56.31;98344.91;5024271;27;124816;-88
2023/06/09 04:30:10;;;;;;;;;;;18.40;88.40;;;18.69;56.33;98340.88;5028449;28;113188;-87
2023/06/09 04:32:36;;;;;;;;;;;18.40;88.40;;;18.66;56.43;98335.25;5011125;28;113095;-88
2023/06/09 04:35:03;;;;;;;;;;;18.40;88.40;;;18.63;56.48;98325.63;5025061;27;124156;-87
2023/06/09 04:37:30;;;;;;;;;;;18.30;88.40;;;18.60;56.51;98331.97;5025216;28;124123;-87
2023/06/09 04:39:57;;;;;;;;;;;18.30;88.60;;;18.61;56.63;98332.78;5026264;27;116247;-87
2023/06/09 04:42:25;;;;;;;;;;;18.30;88.80;;;18.58;56.89;98336.31;5026353;27;113641;-88
2023/06/09 04:44:53;;;;;;;;;;;18.30;89.00;;;18.55;56.97;98335.88;5023326;27;123990;-87
2023/06/09 04:47:20;;;;;;;;;;;18.30;89.10;;;18.55;56.91;98335.09;5023911;27;123875;-88
2023/06/09 04:49:47;;;;;;;;;;;18.30;89.30;;;18.55;56.97;98344.28;5026629;27;116321;-86
2023/06/09 04:52:17;;;;;;;;;;;18.30;89.40;;;18.54;56.95;98339.88;5025198;28;114986;-87
2023/06/09 04:54:49;;;;;;;;;;;18.30;89.50;;;18.56;57.22;98342.28;5025132;27;124179;-87
2023/06/09 04:57:20;;;;;;;;;;;18.30;89.70;;;18.58;57.24;98350.31;5026092;28;123927;-87
2023/06/09 04:59:46;;;;;;;;;;;18.30;89.80;;;18.61;57.08;98347.56;5004213;27;114880;-87
2023/06/09 05:02:12;;;;;;;;;;;18.30;90.30;;;18.65;57.25;98354.03;5004433;28;112856;-87
2023/06/09 05:04:39;;;;;;;;;;;18.30;90.00;;;18.68;56.97;98344.06;5025246;27;125060;-87
2023/06/09 05:07:06;;;;;;;;;;;18.30;90.00;;;18.70;56.87;98341.72;5024878;27;124013;-87
2023/06/09 05:09:35;;;;;;;;;;;18.40;90.00;;;18.72;56.70;98342.91;5026715;27;114378;-86
2023/06/09 05:12:01;;;;;;;;;;;18.40;89.80;;;18.76;56.59;98354.22;5011377;27;113302;-86
2023/06/09 05:14:27;;;;;;;;;;;18.40;89.80;;;18.81;56.67;98353.91;5005920;28;125346;-87
2023/06/09 05:16:54;;;;;;;;;;;18.40;89.80;;;18.84;56.41;98357.94;5028906;27;123657;-87
2023/06/09 05:19:21;;;;;;;;;;;18.40;89.70;;;18.87;56.40;98348.78;5029468;27;113860;-87
2023/06/09 05:21:47;;;;;;;;;;;18.50;89.70;;;18.90;56.28;98357.22;5031699;27;113732;-87
2023/06/09 05:24:16;;;;;;;;;;;18.50;89.60;;;18.95;56.03;98356.88;5027867;27;124614;-86
2023/06/09 05:26:42;;;;;;;;;;;18.60;89.70;;;19.01;55.90;98351.75;5027190;28;124157;-86
2023/06/09 05:29:08;;;;;;;;;;;18.60;89.60;;;19.06;55.87;98356.22;5028981;27;114424;-88
2023/06/09 05:31:35;;;;;;;;;;;18.60;89.50;;;19.12;55.92;98355.50;5027450;27;113661;-86
2023/06/09 05:34:01;;;;;;;;;;;18.70;89.60;;;19.17;56.13;98357.16;5030870;27;123916;-86
2023/06/09 05:36:27;;;;;;;;;;;18.70;89.70;;;19.19;56.02;98350.00;5028826;27;125288;-87
2023/06/09 05:38:54;;;;;;;;;;;18.80;89.80;;;19.24;55.77;98354.47;5025880;27;116083;-86
2023/06/09 05:41:20;;;;;;;;;;;18.80;89.80;;;19.29;55.83;98359.72;5028374;28;114705;-85
2023/06/09 05:43:47;;;;;;;;;;;18.90;89.90;;;19.37;55.48;98350.22;5029086;27;124364;-86
2023/06/09 05:46:15;;;;;;;;;;;18.90;89.80;;;19.45;55.61;98347.47;5026547;27;123696;-84
2023/06/09 05:48:41;;;;;;;;;;;19.00;89.80;;;19.51;55.40;98352.38;5041965;27;114316;-84
2023/06/09 05:51:08;;;;;;;;;;;19.10;89.90;;;19.59;55.45;98361.66;5028949;27;113724;-85
2023/06/09 05:53:34;;;;;;;;;;;19.10;89.80;;;19.67;55.21;98354.97;5017221;27;124179;-84
2023/06/09 05:56:00;;;;;;;;;;;19.20;89.80;;;19.74;55.19;98359.84;5022176;27;123842;-88
2023/06/09 05:58:33;;;;;;;;;;;19.20;89.80;;;19.83;55.03;98363.97;5028442;27;114391;-85
2023/06/09 06:01:00;;;;;;;;;;;19.30;89.90;;;19.91;55.17;98358.41;5025735;27;113533;-85
2023/06/09 06:03:27;;;;;;;;;;;19.40;89.80;;;19.99;55.03;98360.09;5026940;27;123501;-85
2023/06/09 06:05:53;;;;;;;;;;;19.50;89.80;;;20.07;55.05;98353.38;5028368;27;123633;-86
2023/06/09 06:08:20;;;;;;;;;;;19.50;89.70;;;20.13;54.58;98351.81;5021211;27;115079;-84
2023/06/09 06:10:46;;;;;;;;;;;19.60;89.50;;;20.20;54.43;98365.91;5023217;27;114624;-87
2023/06/09 06:13:13;;;;;;;;;;;19.70;89.40;;;20.25;54.91;98368.34;5011869;28;123050;-86
2023/06/09 06:15:39;;;;;;;;;;;19.70;89.50;;;20.27;54.73;98365.94;5028830;27;123630;-84
2023/06/09 06:18:05;;;;;;;;;;;19.80;89.80;;;20.36;54.57;98373.22;5028239;27;114406;-84
2023/06/09 06:20:32;;;;;;;;;;;19.80;89.80;;;20.43;54.71;98373.31;5027627;27;113871;-85
2023/06/09 06:22:58;;;;;;;;;;;19.90;89.70;;;20.47;54.17;98368.50;5028499;27;124226;-85
2023/06/09 06:25:28;;;;;;;;;;;19.90;89.40;;;20.46;54.04;98364.09;5018821;27;123761;-86
2023/06/09 06:27:55;;;;;;;;;;;19.90;89.20;;;20.49;54.18;98366.91;5043684;27;114744;-87
2023/06/09 06:30:21;;;;;;;;;;;20.00;89.20;;;20.56;53.98;98360.59;5027674;27;114384;-85
2023/06/09 06:32:51;;;;;;;;;;;20.00;89.00;;;20.62;53.77;98375.88;5027498;27;124248;-85
2023/06/09 06:35:25;;;;;;;;;;;20.10;88.90;;;20.68;53.93;98363.06;5027323;27;123168;-86
2023/06/09 06:37:51;;;;;;;;;;;20.10;88.70;;;20.78;53.21;98360.75;5026874;27;114686;-86
2023/06/09 06:40:18;;;;;;;;;;;20.20;88.50;;;20.84;52.88;98359.97;5019455;27;113509;-86
2023/06/09 06:42:44;;;;;;;;;;;20.30;88.30;;;20.95;53.23;98360.03;5025838;28;124242;-86
2023/06/09 06:45:11;;;;;;;;;;;20.40;88.10;;;21.07;52.60;98362.53;5026459;28;124253;-87
2023/06/09 06:47:43;;;;;;;;;;;20.50;88.00;;;21.18;52.33;98356.94;5029443;27;113779;-86
2023/06/09 06:50:09;;;;;;;;;;;20.60;87.80;;;21.24;51.87;98357.38;5026238;27;113936;-86
2023/06/09 06:52:36;;;;;;;;;;;20.70;87.00;;;21.30;52.03;98356.59;5011255;27;124466;-87
2023/06/09 06:55:05;;;;;;;;;;;20.70;87.00;;;21.40;51.71;98355.06;5004412;27;122879;-86
2023/06/09 06:57:31;;;;;;;;;;;20.80;86.90;;;21.50;51.49;98365.53;5022453;27;114995;-87
2023/06/09 06:59:57;;;;;;;;;;;20.90;86.50;;;21.55;50.87;98359.53;5028347;28;113473;-86
2023/06/09 07:02:23;;;;;;;;;;;21.00;86.00;;;21.59;51.15;98365.16;5025134;28;124286;-86
2023/06/09 07:04:50;;;;;;;;;;;21.00;85.70;;;21.65;50.55;98368.38;5012581;28;124055;-87
2023/06/09 07:07:16;;;;;;;;;;;21.00;85.20;;;21.70;50.84;98376.44;5026546;27;114012;-86
2023/06/09 07:09:43;;;;;;;;;;;21.10;85.10;;;21.79;50.24;98371.25;5027300;27;112972;-86
2023/06/09 07:12:09;;;;;;;;;;;21.20;85.00;;;21.87;50.07;98369.25;5018928;27;124255;-86
2023/06/09 07:14:36;;;;;;;;;;;21.20;84.30;;;21.90;49.56;98374.91;5029264;28;122020;-86
2023/06/09 07:17:02;;;;;;;;;;;21.30;83.70;;;21.95;49.62;98371.69;5004548;28;115329;-86
2023/06/09 07:19:28;;;;;;;;;;;21.30;83.40;;;22.03;49.59;98375.28;5004220;28;113846;-86
2023/06/09 07:21:57;;;;;;;;;;;21.40;83.40;;;22.14;49.02;98380.94;5028394;27;123937;-86
2023/06/09 07:24:23;;;;;;;;;;;21.50;83.10;;;22.22;49.04;98379.78;5028308;27;122160;-86
2023/06/09 07:26:49;;;;;;;;;;;21.60;82.90;;;22.30;48.90;98380.56;5026650;28;114374;-86
2023/06/09 07:29:15;;;;;;;;;;;21.70;82.50;;;22.36;48.36;98376.19;5028724;28;112793;-86
2023/06/09 07:31:42;;;;;;;;;;;21.70;81.80;;;22.40;48.17;98365.72;5025157;28;124176;-86
2023/06/09 07:34:10;;;;;;;;;;;21.80;81.80;;;22.49;48.30;98372.56;5025384;27;123870;-86
2023/06/09 07:36:38;;;;;;;;;;;21.90;81.80;;;22.57;47.74;98376.16;5029288;28;114041;-86
2023/06/09 07:39:04;;;;;;;;;;;22.00;81.20;;;22.66;47.63;98385.00;5026402;27;113061;-87
2023/06/09 07:41:31;;;;;;;;;;;22.10;80.80;;;22.76;47.57;98386.22;5028456;27;124072;-86
2023/06/09 07:43:58;;;;;;;;;;;23.40;81.40;;;22.83;46.94;98380.53;5018441;27;123317;-86
2023/06/09 07:46:24;;;;;;;;;;;22.20;79.60;;;22.89;46.86;98375.31;5011978;28;113300;-85
2023/06/09 07:48:51;;;;;;;;;;;22.30;79.10;;;22.94;46.58;98374.88;5026324;27;113933;-85
2023/06/09 07:51:18;;;;;;;;;;;22.30;78.60;;;22.99;46.73;98382.97;5029253;27;123380;-86
2023/06/09 07:53:46;;;;;;;;;;;22.40;78.50;;;23.03;46.01;98366.88;5024756;27;123165;-86
2023/06/09 07:56:13;;;;;;;;;;;22.50;78.30;;;23.07;46.31;98378.13;5005771;28;113952;-85
2023/06/09 07:58:40;;;;;;;;;;;22.50;78.20;;;23.13;46.15;98371.66;5010036;28;113058;-86
2023/06/09 08:01:09;;;;;;;;;;;22.50;78.00;;;23.21;45.97;98366.78;5019337;27;125232;-86
2023/06/09 08:03:35;;;;;;;;;;;22.60;77.50;;;23.29;45.67;98373.22;5022616;27;124258;-86
2023/06/09 08:06:02;;;;;;;;;;;22.70;77.30;;;23.35;45.77;98371.59;5027158;27;115629;-86
2023/06/09 08:08:31;;;;;;;;;;;22.80;77.30;;;23.42;45.16;98365.09;5025931;27;114346;-86
2023/06/09 08:11:00;;;;;;;;;;;22.90;76.80;;;23.47;45.18;98357.03;5024466;27;124057;-85
2023/06/09 08:13:28;;;;;;;;;;;23.00;76.50;;;23.49;45.19;98353.81;5025450;27;123960;-86
2023/06/09 08:15:54;;;;;;;;;;;22.90;76.20;;;23.55;45.50;98350.13;5025501;27;114564;-86
2023/06/09 08:18:20;;;;;;;;;;;23.00;76.30;;;23.64;45.38;98360.97;5025141;27;113975;-86
2023/06/09 08:20:46;;;;;;;;;;;23.10;76.40;;;23.70;45.00;98356.53;5023937;27;126336;-86
2023/06/09 08:23:12;;;;;;;;;;;23.20;76.00;;;23.73;45.10;98357.75;5024897;27;123624;-84
2023/06/09 08:25:39;;;;;;;;;;;23.20;75.70;;;23.75;45.01;98356.13;5023870;27;114398;-85
2023/06/09 08:28:08;;;;;;;;;;;23.30;75.90;;;23.81;45.48;98354.47;5026677;27;113855;-85
2023/06/09 08:30:36;;;;;;;;;;;23.30;75.90;;;23.90;44.85;98356.03;5018054;27;122307;-86
2023/06/09 08:33:03;;;;;;;;;;;23.40;75.60;;;23.96;44.18;98343.88;5025860;27;123325;-85
2023/06/09 08:35:32;;;;;;;;;;;23.40;74.40;;;24.01;43.85;98334.97;5004174;28;113529;-86
2023/06/09 08:37:59;;;;;;;;;;;23.40;74.20;;;24.11;44.00;98336.13;5025846;27;113890;-86
2023/06/09 08:40:27;;;;;;;;;;;23.50;74.30;;;24.18;43.50;98327.59;5025816;28;123976;-86
2023/06/09 08:42:55;;;;;;;;;;;23.60;73.60;;;24.26;43.31;98336.81;5025426;27;123922;-86
2023/06/09 08:45:22;;;;;;;;;;;23.70;73.40;;;24.32;43.17;98323.06;5030618;27;114852;-86
2023/06/09 08:47:50;;;;;;;;;;;23.80;72.80;;;24.34;42.38;98321.41;5018377;28;112853;-86
2023/06/09 08:50:18;;;;;;;;;;;23.90;71.70;;;24.35;42.12;98313.75;5030320;27;124034;-85
2023/06/09 08:52:46;;;;;;;;;;;23.90;70.90;;;24.39;42.12;98325.78;5016370;28;123333;-85
2023/06/09 08:55:15;;;;;;;;;;;23.90;71.20;;;24.44;41.98;98322.56;5030036;27;115898;-86
2023/06/09 08:57:42;;;;;;;;;;;24.00;70.60;;;24.50;41.66;98320.09;5032292;27;114616;-85
2023/06/09 09:00:11;;;;;;;;;;;24.00;70.60;;;24.56;41.97;98324.88;5028840;27;124395;-84
2023/06/09 09:02:37;;;;;;;;;;;24.00;70.60;;;24.63;41.51;98310.66;5029175;27;123649;-84
2023/06/09 09:05:04;;;;;;;;;;;23.40;69.30;;;24.67;41.09;98319.91;5030929;28;115023;-85
2023/06/09 09:07:30;;;;;;;;;;;24.20;69.00;;;24.72;41.34;98318.66;5033329;27;113743;-85
2023/06/09 09:09:58;;;;;;;;;;;24.20;69.60;;;24.81;41.29;98318.16;5031558;28;124127;-84
2023/06/09 09:12:24;;;;;;;;;;;24.30;69.80;;;24.88;41.10;98323.75;5031251;27;123847;-85
2023/06/09 09:14:51;;;;;;;;;;;24.30;69.70;;;24.92;40.95;98319.63;5031779;27;114119;-84
2023/06/09 09:17:20;;;;;;;;;;;24.40;69.20;;;24.94;41.19;98316.41;5030254;28;113815;-85
2023/06/09 09:19:53;;;;;;;;;;;24.50;69.20;;;24.97;40.93;98321.22;5030433;27;125716;-83
2023/06/09 09:22:19;;;;;;;;;;;24.50;68.90;;;24.99;40.77;98323.63;5033519;27;123701;-84
2023/06/09 09:24:49;;;;;;;;;;;24.50;68.50;;;25.02;41.10;98317.91;5030852;27;113886;-84
2023/06/09 09:27:21;;;;;;;;;;;24.50;68.70;;;25.06;40.55;98310.19;5024778;27;113662;-84
2023/06/09 09:29:49;;;;;;;;;;;24.60;68.30;;;25.07;40.50;98313.84;5039089;27;124364;-86
2023/06/09 09:32:16;;;;;;;;;;;24.60;67.50;;;25.06;40.25;98315.84;5027838;27;123613;-84
2023/06/09 09:34:47;;;;;;;;;;;24.60;67.70;;;25.09;40.53;98312.19;5027906;27;114387;-84
2023/06/09 09:37:16;;;;;;;;;;;24.60;67.70;;;25.13;40.72;98312.94;5016271;28;113820;-84
2023/06/09 09:39:55;;;;;;;;;;;24.70;67.80;;;25.19;40.71;98307.66;5026700;27;125060;-85
2023/06/09 09:42:26;;;;;;;;;;;24.80;67.80;;;25.25;39.93;98308.78;5033141;27;123155;-83
2023/06/09 09:44:53;;;;;;;;;;;24.00;66.60;;;25.30;39.94;98299.03;5029547;27;115165;-85
2023/06/09 09:47:22;;;;;;;;;;;24.80;67.40;;;25.34;40.20;98299.78;5021495;27;114998;-84
2023/06/09 09:49:50;;;;;;;;;;;24.90;67.20;;;25.43;40.24;98294.41;5027644;27;124287;-85
2023/06/09 09:52:26;;;;;;;;;;;24.90;67.40;;;25.47;39.79;98292.34;5030600;27;124399;-84
2023/06/09 09:55:04;;;;;;;;;;;25.00;67.10;;;25.53;39.99;98293.47;5016322;27;112786;-86
2023/06/09 09:57:36;;;;;;;;;;;25.10;67.20;;;25.58;39.65;98292.19;5020829;28;113642;-83
2023/06/09 10:00:10;;;;;;;;;;;25.10;67.10;;;25.60;39.52;98288.91;5024417;27;124228;-84
2023/06/09 10:02:36;;;;;;;;;;;25.20;66.20;;;25.61;39.65;98284.88;5026536;27;123810;-83
2023/06/09 10:05:06;;;;;;;;;;;25.10;65.80;;;25.64;39.65;98279.16;5028397;27;113401;-83
2023/06/09 10:07:38;;;;;;;;;;;25.30;66.20;;;25.67;39.78;98278.31;5006353;28;113164;-83
2023/06/09 10:10:04;;;;;;;;;;;25.20;66.60;;;25.71;38.81;98287.56;5026681;27;124929;-84
2023/06/09 10:12:32;;;;;;;;;;;25.30;65.20;;;25.75;38.62;98276.97;5027177;27;123493;-84
2023/06/09 10:14:59;;;;;;;;;;;25.30;65.10;;;25.79;38.95;98274.06;5009979;28;114071;-84
2023/06/09 10:17:25;;;;;;;;;;;25.40;65.10;;;25.84;38.92;98276.44;5028227;27;113577;-85
2023/06/09 10:19:52;;;;;;;;;;;25.40;64.90;;;25.91;38.36;98278.38;5024428;27;124823;-83
2023/06/09 10:22:19;;;;;;;;;;;25.40;64.00;;;25.94;37.72;98275.50;5028684;27;123467;-84
2023/06/09 10:24:50;;;;;;;;;;;25.50;63.10;;;25.94;37.01;98278.31;5023159;28;114384;-85
2023/06/09 10:27:16;;;;;;;;;;;25.50;62.30;;;25.96;35.99;98275.88;5025459;28;115356;-85
2023/06/09 10:29:45;;;;;;;;;;;25.50;60.50;;;26.00;35.82;98273.75;5027708;27;123445;-85
2023/06/09 10:32:13;;;;;;;;;;;25.50;60.20;;;26.06;35.11;98281.78;5025452;27;123706;-84
2023/06/09 10:34:41;;;;;;;;;;;25.60;59.00;;;26.12;34.37;98280.88;5027153;27;115125;-85
2023/06/09 10:37:07;;;;;;;;;;;25.60;58.10;;;26.18;34.44;98272.69;5027130;27;114387;-84
2023/06/09 10:39:52;;;;;;;;;;;25.70;57.40;;;26.21;34.12;98283.13;5027116;27;124097;-84
2023/06/09 10:42:32;;;;;;;;;;;25.80;56.90;;;26.32;34.47;98282.97;5027439;28;123733;-84
2023/06/09 10:45:06;;;;;;;;;;;25.80;57.20;;;26.39;33.84;98277.97;5025583;27;113968;-84
2023/06/09 10:47:49;;;;;;;;;;;25.90;56.90;;;26.45;33.87;98270.56;5026805;27;113845;-84
2023/06/09 10:50:26;;;;;;;;;;;26.00;56.30;;;26.53;33.25;98267.63;5025652;28;124541;-84
2023/06/09 10:52:54;;;;;;;;;;;26.00;55.70;;;26.57;33.09;98265.53;5026581;28;124277;-84
2023/06/09 10:55:24;;;;;;;;;;;26.10;55.00;;;26.63;33.13;98264.59;5027404;27;115268;-86
2023/06/09 10:57:51;;;;;;;;;;;26.20;55.40;;;26.71;33.04;98261.66;5026130;28;114319;-84
2023/06/09 11:00:18;;;;;;;;;;;26.20;55.20;;;26.77;32.98;98260.69;5024122;27;123954;-85
2023/06/09 11:02:52;;;;;;;;;;;26.30;55.00;;;26.81;33.18;98258.59;5026716;28;123860;-85
2023/06/09 11:05:21;;;;;;;;;;;26.30;55.40;;;26.90;33.57;98260.06;5024543;27;114023;-85
2023/06/09 11:07:50;;;;;;;;;;;26.40;55.50;;;26.96;32.93;98258.31;5026012;27;113957;-84
2023/06/09 11:10:20;;;;;;;;;;;26.40;54.80;;;27.01;32.68;98255.75;5003383;27;124032;-85
2023/06/09 11:12:46;;;;;;;;;;;26.50;54.40;;;27.07;32.72;98267.38;5026161;27;123794;-85
2023/06/09 11:15:16;;;;;;;;;;;26.60;54.80;;;27.14;32.73;98253.06;5027498;27;112527;-85